Time;durP1;ratioP1;P1;durP2;ratioP2;P2;SDS_P1;SDS_P2;PMS_P1;PMS_P2;Temp;Humidity;BMP_temperature;BMP_pressure;BME280_temperature;BME280_humidity;BME280_pressure;Samples;Min_cycle;Max_cycle;Signal;HPM_P1;HPM_P2
2021/01/10 00:00:10;;;;;;;55.47;25.70;;;;;;;;;;6252344;23;20028;-85
2021/01/10 00:02:39;;;;;;;59.08;27.23;;;;;;;;;;6228274;23;20035;-87
2021/01/10 00:05:09;;;;;;;59.90;26.45;;;;;;;;;;6228516;23;20035;-86
2021/01/10 00:07:39;;;;;;;57.33;27.20;;;;;;;;;;6251812;22;20035;-83
2021/01/10 00:10:09;;;;;;;57.22;26.30;;;;;;;;;;6253033;23;20047;-87
2021/01/10 00:12:46;;;;;;;64.40;29.08;;;;;;;;;;6254734;23;20039;-87
2021/01/10 00:15:18;;;;;;;65.50;28.70;;;;;;;;;;6268806;23;20062;-88
2021/01/10 00:17:46;;;;;;;60.40;27.55;;;;;;;;;;6269220;22;20004;-88
2021/01/10 00:20:13;;;;;;;73.38;29.38;;;;;;;;;;6255455;23;20185;-88
2021/01/10 00:22:40;;;;;;;62.22;29.70;;;;;;;;;;6212610;23;20054;-88
2021/01/10 00:25:08;;;;;;;69.57;28.55;;;;;;;;;;6249934;23;20043;-84
2021/01/10 00:27:34;;;;;;;69.00;27.98;;;;;;;;;;6265894;23;20022;-85
2021/01/10 00:30:01;;;;;;;65.30;28.90;;;;;;;;;;6267379;23;20039;-86
2021/01/10 00:32:33;;;;;;;65.57;28.75;;;;;;;;;;6226821;23;20035;-86
2021/01/10 00:35:00;;;;;;;57.35;26.95;;;;;;;;;;6250427;23;20055;-85
2021/01/10 00:37:26;;;;;;;62.80;28.10;;;;;;;;;;6251739;23;20074;-85
2021/01/10 00:39:53;;;;;;;63.50;27.20;;;;;;;;;;6247632;23;20099;-85
2021/01/10 00:42:19;;;;;;;70.68;28.40;;;;;;;;;;6249715;23;20357;-85
2021/01/10 00:44:46;;;;;;;59.60;26.70;;;;;;;;;;6224925;23;20032;-85
2021/01/10 00:47:16;;;;;;;64.50;26.90;;;;;;;;;;6251777;23;20381;-85
2021/01/10 00:49:45;;;;;;;62.95;26.27;;;;;;;;;;6249409;23;20039;-85
2021/01/10 00:52:11;;;;;;;64.97;28.08;;;;;;;;;;6231504;23;20173;-85
2021/01/10 00:54:38;;;;;;;68.25;27.65;;;;;;;;;;6235822;23;20024;-85
2021/01/10 00:57:04;;;;;;;62.78;26.92;;;;;;;;;;6236611;23;20028;-85
2021/01/10 00:59:31;;;;;;;62.35;26.23;;;;;;;;;;6268511;22;20184;-85
2021/01/10 01:02:00;;;;;;;58.60;25.42;;;;;;;;;;6265584;23;20024;-85
2021/01/10 01:04:27;;;;;;;60.60;26.40;;;;;;;;;;6226544;23;20035;-85
2021/01/10 01:06:56;;;;;;;73.03;28.98;;;;;;;;;;6251188;23;20086;-85
2021/01/10 01:09:22;;;;;;;58.10;27.08;;;;;;;;;;6223188;23;20243;-84
2021/01/10 01:11:52;;;;;;;62.00;27.05;;;;;;;;;;6252111;23;20410;-85
2021/01/10 01:14:23;;;;;;;60.63;26.92;;;;;;;;;;6219660;23;20075;-85
2021/01/10 01:16:50;;;;;;;54.25;23.02;;;;;;;;;;6237790;23;20012;-85
2021/01/10 01:19:16;;;;;;;58.17;25.35;;;;;;;;;;6242295;23;20016;-84
2021/01/10 01:21:42;;;;;;;59.55;25.58;;;;;;;;;;6242148;23;20018;-84
2021/01/10 01:24:15;;;;;;;59.80;25.90;;;;;;;;;;6244281;23;20016;-85
2021/01/10 01:26:44;;;;;;;50.95;23.92;;;;;;;;;;6230458;23;20051;-85
2021/01/10 01:29:10;;;;;;;51.80;22.35;;;;;;;;;;6226280;23;20028;-84
2021/01/10 01:31:41;;;;;;;56.63;23.85;;;;;;;;;;6224814;23;20025;-84
2021/01/10 01:34:08;;;;;;;55.42;23.60;;;;;;;;;;6249086;23;20383;-85
2021/01/10 01:36:34;;;;;;;49.17;21.70;;;;;;;;;;6251382;23;20067;-85
2021/01/10 01:39:01;;;;;;;50.25;22.63;;;;;;;;;;6249383;23;20024;-85
2021/01/10 01:41:28;;;;;;;52.13;22.05;;;;;;;;;;6223947;23;20337;-85
2021/01/10 01:43:57;;;;;;;48.30;20.08;;;;;;;;;;6223959;23;20027;-84
2021/01/10 01:46:28;;;;;;;42.17;20.80;;;;;;;;;;6222503;23;20059;-84
2021/01/10 01:48:59;;;;;;;53.22;23.15;;;;;;;;;;6249598;23;20357;-85
2021/01/10 01:51:26;;;;;;;47.17;19.63;;;;;;;;;;6223547;23;20034;-85
2021/01/10 01:53:53;;;;;;;47.88;21.27;;;;;;;;;;6247835;23;20034;-85
2021/01/10 01:56:21;;;;;;;45.40;20.35;;;;;;;;;;6247019;23;20028;-85
2021/01/10 01:58:57;;;;;;;41.80;20.67;;;;;;;;;;6248117;23;20047;-84
2021/01/10 02:01:24;;;;;;;44.10;20.05;;;;;;;;;;6256621;23;20079;-85
2021/01/10 02:03:55;;;;;;;43.20;20.63;;;;;;;;;;6260725;23;20031;-85
2021/01/10 02:06:25;;;;;;;50.53;20.45;;;;;;;;;;6233705;23;20038;-84
2021/01/10 02:08:53;;;;;;;42.75;19.63;;;;;;;;;;6252568;23;20078;-85
2021/01/10 02:11:24;;;;;;;37.50;18.05;;;;;;;;;;6250074;23;20103;-84
2021/01/10 02:13:54;;;;;;;38.90;17.90;;;;;;;;;;6226148;23;20035;-87
2021/01/10 02:16:21;;;;;;;36.80;18.98;;;;;;;;;;6222311;23;20024;-88
2021/01/10 02:18:48;;;;;;;36.22;17.67;;;;;;;;;;6247660;23;20076;-87
2021/01/10 02:21:15;;;;;;;40.72;18.80;;;;;;;;;;6221509;23;20032;-87
2021/01/10 02:23:43;;;;;;;39.28;18.30;;;;;;;;;;6225972;23;20055;-87
2021/01/10 02:26:11;;;;;;;39.90;19.77;;;;;;;;;;6252578;23;20099;-87
2021/01/10 02:28:39;;;;;;;40.53;18.70;;;;;;;;;;6250010;23;20036;-87
2021/01/10 02:31:07;;;;;;;39.60;18.67;;;;;;;;;;6223804;23;20020;-86
2021/01/10 02:33:50;;;;;;;40.13;19.33;;;;;;;;;;6223631;23;20040;-86
2021/01/10 02:36:32;;;;;;;35.55;17.63;;;;;;;;;;6248036;23;20310;-86
2021/01/10 02:39:21;;;;;;;35.55;18.73;;;;;;;;;;6249047;23;20051;-86
2021/01/10 02:41:50;;;;;;;43.00;18.25;;;;;;;;;;6248906;23;20110;-86
2021/01/10 02:44:18;;;;;;;40.22;18.42;;;;;;;;;;6222943;23;20025;-86
2021/01/10 02:46:50;;;;;;;39.65;17.40;;;;;;;;;;6222363;23;20027;-86
2021/01/10 02:49:17;;;;;;;41.28;17.95;;;;;;;;;;6223601;23;20146;-86
2021/01/10 02:51:43;;;;;;;35.08;16.90;;;;;;;;;;6249302;23;20318;-86
2021/01/10 02:54:13;;;;;;;40.13;17.52;;;;;;;;;;6249669;23;20044;-86
2021/01/10 02:56:41;;;;;;;36.20;17.95;;;;;;;;;;6229262;23;20051;-86
2021/01/10 02:59:19;;;;;;;37.60;17.10;;;;;;;;;;6259078;23;20031;-86
2021/01/10 03:01:47;;;;;;;32.63;15.85;;;;;;;;;;6255015;23;20096;-83
2021/01/10 03:04:14;;;;;;;36.28;16.95;;;;;;;;;;6249991;23;20073;-83
2021/01/10 03:06:48;;;;;;;34.90;15.32;;;;;;;;;;6249372;23;20024;-83
2021/01/10 03:09:15;;;;;;;35.80;16.13;;;;;;;;;;6249355;23;20081;-83
2021/01/10 03:11:42;;;;;;;32.22;15.02;;;;;;;;;;6223074;23;20080;-83
2021/01/10 03:14:15;;;;;;;32.50;16.30;;;;;;;;;;6223292;23;20024;-83
2021/01/10 03:16:42;;;;;;;36.85;17.10;;;;;;;;;;6222734;23;20063;-83
2021/01/10 03:19:09;;;;;;;33.10;16.08;;;;;;;;;;6248811;23;20425;-83
2021/01/10 03:21:38;;;;;;;35.50;17.08;;;;;;;;;;6248356;23;20349;-83
2021/01/10 03:24:08;;;;;;;35.67;16.17;;;;;;;;;;6249334;23;20058;-83
2021/01/10 03:26:35;;;;;;;31.88;16.52;;;;;;;;;;6249747;23;20028;-83
2021/01/10 03:29:01;;;;;;;34.10;16.70;;;;;;;;;;6225630;23;20515;-83
2021/01/10 03:31:29;;;;;;;31.30;16.30;;;;;;;;;;6224509;23;20086;-83
2021/01/10 03:33:58;;;;;;;32.85;15.18;;;;;;;;;;6252007;23;20063;-83
2021/01/10 03:36:25;;;;;;;33.28;16.15;;;;;;;;;;6249033;23;20082;-83
2021/01/10 03:38:54;;;;;;;33.85;17.27;;;;;;;;;;6229256;23;20124;-82
2021/01/10 03:41:30;;;;;;;30.15;15.90;;;;;;;;;;6238807;23;20043;-82
2021/01/10 03:43:57;;;;;;;31.60;16.40;;;;;;;;;;6265665;23;20031;-83
2021/01/10 03:46:23;;;;;;;30.85;15.00;;;;;;;;;;6240786;23;20035;-83
2021/01/10 03:48:54;;;;;;;28.55;15.52;;;;;;;;;;6269186;22;20016;-83
2021/01/10 03:51:25;;;;;;;27.95;15.07;;;;;;;;;;6242806;22;20027;-83
2021/01/10 03:53:51;;;;;;;30.90;16.40;;;;;;;;;;6242503;23;20040;-83
2021/01/10 03:56:22;;;;;;;25.92;13.90;;;;;;;;;;6270762;22;20071;-82
2021/01/10 03:58:50;;;;;;;31.92;16.98;;;;;;;;;;6264034;22;20101;-82
2021/01/10 04:01:17;;;;;;;30.30;16.13;;;;;;;;;;6260611;23;20039;-83
2021/01/10 04:03:44;;;;;;;28.63;15.82;;;;;;;;;;6243394;23;20048;-82
2021/01/10 04:06:11;;;;;;;27.05;14.05;;;;;;;;;;6231247;23;20016;-83
2021/01/10 04:08:45;;;;;;;31.30;15.70;;;;;;;;;;6223851;23;20043;-82
2021/01/10 04:11:13;;;;;;;32.95;14.68;;;;;;;;;;6249597;23;20070;-82
2021/01/10 04:13:42;;;;;;;33.08;16.90;;;;;;;;;;6223623;23;20031;-82
2021/01/10 04:16:11;;;;;;;35.83;16.90;;;;;;;;;;6223453;23;20020;-83
2021/01/10 04:18:38;;;;;;;32.08;15.05;;;;;;;;;;6248254;23;20024;-84
2021/01/10 04:21:07;;;;;;;28.30;14.35;;;;;;;;;;6248016;23;20024;-83
2021/01/10 04:23:36;;;;;;;30.02;15.77;;;;;;;;;;6223410;23;20028;-83
2021/01/10 04:26:05;;;;;;;28.25;14.93;;;;;;;;;;6225339;23;20095;-83
2021/01/10 04:28:34;;;;;;;29.65;15.55;;;;;;;;;;6249641;23;20021;-83
2021/01/10 04:31:02;;;;;;;30.02;15.00;;;;;;;;;;6223245;23;20024;-83
2021/01/10 04:33:28;;;;;;;29.50;14.93;;;;;;;;;;6223285;23;20287;-83
2021/01/10 04:35:55;;;;;;;27.23;14.70;;;;;;;;;;6249234;23;20529;-83
2021/01/10 04:38:23;;;;;;;27.73;14.95;;;;;;;;;;6247765;23;20063;-83
2021/01/10 04:40:50;;;;;;;28.95;15.52;;;;;;;;;;6221472;23;20046;-83
2021/01/10 04:43:16;;;;;;;24.65;13.60;;;;;;;;;;6249306;23;20102;-83
2021/01/10 04:45:45;;;;;;;29.40;15.20;;;;;;;;;;6224377;23;20297;-83
2021/01/10 04:48:11;;;;;;;30.52;15.15;;;;;;;;;;6249928;23;20310;-84
2021/01/10 04:50:38;;;;;;;27.85;14.77;;;;;;;;;;6225095;23;20080;-84
2021/01/10 04:53:07;;;;;;;27.27;13.23;;;;;;;;;;6251937;23;20271;-84
2021/01/10 04:55:33;;;;;;;28.40;13.68;;;;;;;;;;6252345;23;20038;-84
2021/01/10 04:58:03;;;;;;;28.92;15.38;;;;;;;;;;6224998;23;20024;-84
2021/01/10 05:00:29;;;;;;;26.52;13.80;;;;;;;;;;6223118;23;20036;-83
2021/01/10 05:03:02;;;;;;;25.85;13.88;;;;;;;;;;6250384;23;20099;-84
2021/01/10 05:05:30;;;;;;;33.90;15.55;;;;;;;;;;6252005;23;20468;-84
2021/01/10 05:07:57;;;;;;;29.67;15.10;;;;;;;;;;6251927;23;20265;-84
2021/01/10 05:10:24;;;;;;;29.33;14.93;;;;;;;;;;6251974;23;20032;-84
2021/01/10 05:12:50;;;;;;;26.58;14.80;;;;;;;;;;6251905;23;20402;-84
2021/01/10 05:15:16;;;;;;;32.47;15.90;;;;;;;;;;6223482;23;20024;-84
2021/01/10 05:18:01;;;;;;;33.95;18.20;;;;;;;;;;6224915;23;20297;-82
2021/01/10 05:20:29;;;;;;;36.08;17.20;;;;;;;;;;6249769;23;20074;-83
2021/01/10 05:23:07;;;;;;;35.45;17.20;;;;;;;;;;6249060;23;20028;-83
2021/01/10 05:25:38;;;;;;;35.50;16.55;;;;;;;;;;6224903;23;20024;-83
2021/01/10 05:28:04;;;;;;;34.15;16.23;;;;;;;;;;6223895;23;20028;-83
2021/01/10 05:30:32;;;;;;;36.15;17.45;;;;;;;;;;6223515;23;20054;-83
2021/01/10 05:33:04;;;;;;;39.50;19.30;;;;;;;;;;6250505;23;20028;-83
2021/01/10 05:35:47;;;;;;;37.25;18.25;;;;;;;;;;6250079;23;20067;-83
2021/01/10 05:38:25;;;;;;;38.70;18.52;;;;;;;;;;6250227;23;20028;-83
2021/01/10 05:40:53;;;;;;;36.67;18.65;;;;;;;;;;6223352;23;20337;-83
2021/01/10 05:43:20;;;;;;;38.92;19.02;;;;;;;;;;6248431;23;20436;-83
2021/01/10 05:45:46;;;;;;;40.22;18.60;;;;;;;;;;6248026;23;20301;-83
2021/01/10 05:48:17;;;;;;;37.53;17.08;;;;;;;;;;6246806;23;20024;-83
2021/01/10 05:50:49;;;;;;;33.05;18.27;;;;;;;;;;6246787;23;20028;-83
2021/01/10 05:53:22;;;;;;;35.88;17.30;;;;;;;;;;6221015;23;20090;-83
2021/01/10 05:55:51;;;;;;;34.35;17.55;;;;;;;;;;6220929;23;20024;-83
2021/01/10 05:58:18;;;;;;;39.55;17.73;;;;;;;;;;6247877;23;20024;-83
2021/01/10 06:00:45;;;;;;;36.95;17.55;;;;;;;;;;6222857;23;20242;-83
2021/01/10 06:03:11;;;;;;;35.63;18.20;;;;;;;;;;6248953;23;20313;-83
2021/01/10 06:05:52;;;;;;;33.63;18.02;;;;;;;;;;6249644;23;20394;-83
2021/01/10 06:08:37;;;;;;;34.90;17.23;;;;;;;;;;6223573;23;20028;-83
2021/01/10 06:11:22;;;;;;;34.53;18.42;;;;;;;;;;6221420;23;20039;-83
2021/01/10 06:13:54;;;;;;;39.70;18.80;;;;;;;;;;6249086;23;20055;-83
2021/01/10 06:16:22;;;;;;;40.97;19.35;;;;;;;;;;6222121;23;20020;-83
2021/01/10 06:18:53;;;;;;;45.53;19.23;;;;;;;;;;6250983;23;20171;-82
2021/01/10 06:24:47;;;;;;;39.47;17.70;;;;;;;;;;6254085;23;20015;-83
2021/01/10 06:27:24;;;;;;;33.67;17.77;;;;;;;;;;6262733;23;20024;-83
2021/01/10 06:29:52;;;;;;;41.58;17.77;;;;;;;;;;6261328;23;20052;-86
2021/01/10 06:32:18;;;;;;;34.83;18.38;;;;;;;;;;6261652;23;20051;-86
2021/01/10 06:34:46;;;;;;;37.15;17.98;;;;;;;;;;6260532;23;20024;-86
2021/01/10 06:37:12;;;;;;;41.20;19.73;;;;;;;;;;6251662;23;20055;-87
2021/01/10 06:39:47;;;;;;;45.45;21.20;;;;;;;;;;6253337;23;20067;-86
2021/01/10 06:42:14;;;;;;;41.22;20.30;;;;;;;;;;6222024;23;20042;-86
2021/01/10 06:44:42;;;;;;;41.05;19.15;;;;;;;;;;6220513;23;20225;-86
2021/01/10 06:47:15;;;;;;;41.00;18.40;;;;;;;;;;6246087;23;20024;-86
2021/01/10 06:49:41;;;;;;;47.20;19.42;;;;;;;;;;6247645;23;20028;-86
2021/01/10 06:52:09;;;;;;;48.03;19.27;;;;;;;;;;6226584;23;20272;-86
2021/01/10 06:54:45;;;;;;;44.33;18.75;;;;;;;;;;6221989;23;20028;-86
2021/01/10 06:57:12;;;;;;;40.78;18.77;;;;;;;;;;6224247;23;20024;-86
2021/01/10 06:59:56;;;;;;;39.55;18.35;;;;;;;;;;6256459;23;20024;-86
2021/01/10 07:02:23;;;;;;;38.88;18.38;;;;;;;;;;6262069;23;20032;-87
2021/01/10 07:04:54;;;;;;;44.55;18.55;;;;;;;;;;6265582;23;20081;-87
2021/01/10 07:07:29;;;;;;;44.17;20.40;;;;;;;;;;6241123;22;20023;-87
2021/01/10 07:09:56;;;;;;;40.25;18.55;;;;;;;;;;6268205;23;20022;-87
2021/01/10 07:12:22;;;;;;;38.63;18.38;;;;;;;;;;6240522;23;20027;-87
2021/01/10 07:14:50;;;;;;;39.38;18.40;;;;;;;;;;6266682;23;20154;-87
2021/01/10 07:17:24;;;;;;;41.45;19.25;;;;;;;;;;6236313;23;20035;-87
2021/01/10 07:19:51;;;;;;;43.08;19.83;;;;;;;;;;6257925;23;20104;-87
2021/01/10 07:22:23;;;;;;;39.60;20.50;;;;;;;;;;6261189;23;20008;-87
2021/01/10 07:24:50;;;;;;;39.15;19.73;;;;;;;;;;6267823;22;20036;-87
2021/01/10 07:27:33;;;;;;;37.20;18.80;;;;;;;;;;6241704;22;20015;-87
2021/01/10 07:30:19;;;;;;;39.15;19.67;;;;;;;;;;6236646;23;20076;-87
2021/01/10 07:32:46;;;;;;;39.35;18.00;;;;;;;;;;6226175;23;20039;-87
2021/01/10 07:35:12;;;;;;;40.42;17.48;;;;;;;;;;6232256;23;20452;-86
2021/01/10 07:37:39;;;;;;;35.65;18.88;;;;;;;;;;6242664;22;20012;-87
2021/01/10 07:40:09;;;;;;;41.53;18.52;;;;;;;;;;6235583;23;20130;-87
2021/01/10 07:42:36;;;;;;;33.60;17.35;;;;;;;;;;6224601;23;20035;-87
2021/01/10 07:45:02;;;;;;;37.67;19.60;;;;;;;;;;6226564;23;20485;-87
2021/01/10 07:47:32;;;;;;;39.97;18.65;;;;;;;;;;6227970;23;20058;-87
2021/01/10 07:50:10;;;;;;;42.38;19.15;;;;;;;;;;6224869;23;20071;-87
2021/01/10 07:52:45;;;;;;;35.95;18.33;;;;;;;;;;6225015;23;20024;-87
2021/01/10 07:55:20;;;;;;;39.90;19.80;;;;;;;;;;6224908;23;20192;-87
2021/01/10 07:57:51;;;;;;;32.53;17.83;;;;;;;;;;6250825;23;20060;-87
2021/01/10 08:00:18;;;;;;;41.15;18.60;;;;;;;;;;6248983;23;20025;-87
2021/01/10 08:03:23;;;;;;;36.22;17.40;;;;;;;;;;6229005;23;20052;-87
2021/01/10 08:05:59;;;;;;;40.75;19.10;;;;;;;;;;6157495;23;20037;-87
2021/01/10 08:08:25;;;;;;;;;;;;;;;;;;6211832;23;20051;-87
2021/01/10 08:10:55;;;;;;;34.65;17.88;;;;;;;;;;6224318;23;19915;-87
2021/01/10 08:13:38;;;;;;;36.42;17.80;;;;;;;;;;6225407;23;20024;-87
2021/01/10 08:16:09;;;;;;;32.65;15.52;;;;;;;;;;6195034;23;20024;-87
2021/01/10 08:18:40;;;;;;;32.95;16.58;;;;;;;;;;6196030;23;20079;-87
2021/01/10 08:21:16;;;;;;;33.85;16.17;;;;;;;;;;6197274;23;20260;-88
2021/01/10 08:23:44;;;;;;;37.03;17.27;;;;;;;;;;6196543;23;20083;-87
2021/01/10 08:26:12;;;;;;;32.72;17.70;;;;;;;;;;6198868;23;20276;-87
2021/01/10 08:28:42;;;;;;;37.42;17.23;;;;;;;;;;6224491;23;20028;-87
2021/01/10 08:31:10;;;;;;;35.30;17.35;;;;;;;;;;6197987;23;20035;-87
2021/01/10 08:33:36;;;;;;;35.42;16.60;;;;;;;;;;6195244;23;20033;-87
2021/01/10 08:36:14;;;;;;;36.17;16.88;;;;;;;;;;6196399;23;20025;-87
2021/01/10 08:38:59;;;;;;;36.30;16.40;;;;;;;;;;6195829;23;20025;-87
2021/01/10 08:41:33;;;;;;;38.88;18.05;;;;;;;;;;6224014;23;20024;-88
2021/01/10 08:44:20;;;;;;;35.83;18.33;;;;;;;;;;6195262;23;20292;-87
2021/01/10 08:46:50;;;;;;;36.67;17.48;;;;;;;;;;6196155;23;20025;-88
2021/01/10 08:49:25;;;;;;;36.95;17.20;;;;;;;;;;6197614;23;20025;-88
2021/01/10 08:51:52;;;;;;;34.65;17.67;;;;;;;;;;6196065;23;20029;-88
2021/01/10 08:54:19;;;;;;;38.90;18.05;;;;;;;;;;6195217;23;20040;-88
2021/01/10 08:56:49;;;;;;;32.78;17.25;;;;;;;;;;6196015;23;20020;-87
2021/01/10 08:59:18;;;;;;;36.72;17.90;;;;;;;;;;6220609;23;20093;-88
2021/01/10 09:01:45;;;;;;;35.42;17.77;;;;;;;;;;6196203;23;20033;-87
2021/01/10 09:04:12;;;;;;;34.80;17.27;;;;;;;;;;6222057;23;20029;-88
2021/01/10 09:06:43;;;;;;;37.47;17.55;;;;;;;;;;6196908;23;20048;-88
2021/01/10 09:09:25;;;;;;;33.42;17.08;;;;;;;;;;6197105;23;20028;-88
2021/01/10 09:11:59;;;;;;;39.53;16.20;;;;;;;;;;6227003;23;20216;-87
2021/01/10 09:14:27;;;;;;;36.65;15.93;;;;;;;;;;6222610;23;20012;-87
2021/01/10 09:16:55;;;;;;;35.70;16.27;;;;;;;;;;6266723;22;20028;-87
2021/01/10 09:19:23;;;;;;;36.10;16.92;;;;;;;;;;6240513;23;20038;-88
2021/01/10 09:21:49;;;;;;;34.40;16.95;;;;;;;;;;6264398;23;20028;-86
2021/01/10 09:24:16;;;;;;;32.15;16.58;;;;;;;;;;6231923;23;20401;-85
2021/01/10 09:26:42;;;;;;;34.50;16.02;;;;;;;;;;6257204;23;20036;-86
2021/01/10 09:29:18;;;;;;;28.67;14.50;;;;;;;;;;6228049;23;20024;-86
2021/01/10 09:31:47;;;;;;;31.77;16.45;;;;;;;;;;6227941;23;20050;-86
2021/01/10 09:34:14;;;;;;;31.30;15.90;;;;;;;;;;6254599;23;20054;-86
2021/01/10 09:36:41;;;;;;;32.17;15.63;;;;;;;;;;6226788;23;20024;-86
2021/01/10 09:39:07;;;;;;;27.50;15.57;;;;;;;;;;6253092;23;20070;-87
2021/01/10 09:41:55;;;;;;;28.60;15.05;;;;;;;;;;6227013;23;20034;-86
2021/01/10 09:44:21;;;;;;;30.15;14.90;;;;;;;;;;6227089;23;20024;-87
2021/01/10 09:46:53;;;;;;;29.08;15.90;;;;;;;;;;6257764;23;20024;-87
2021/01/10 09:49:21;;;;;;;30.35;14.98;;;;;;;;;;6268282;22;20012;-87
2021/01/10 09:51:47;;;;;;;27.50;14.05;;;;;;;;;;6261689;22;20147;-87
2021/01/10 09:54:16;;;;;;;31.35;14.63;;;;;;;;;;6250629;23;20024;-87
2021/01/10 09:56:44;;;;;;;26.83;14.10;;;;;;;;;;6226370;23;20035;-87
2021/01/10 09:59:29;;;;;;;33.38;15.43;;;;;;;;;;6252207;23;20024;-88
2021/01/10 10:01:56;;;;;;;25.88;13.63;;;;;;;;;;6224336;23;20077;-87
2021/01/10 10:04:27;;;;;;;25.30;13.00;;;;;;;;;;6223404;23;20043;-88
2021/01/10 10:06:53;;;;;;;23.23;14.45;;;;;;;;;;6251981;23;20285;-86
2021/01/10 10:09:19;;;;;;;27.42;14.18;;;;;;;;;;6226515;23;20085;-86
2021/01/10 10:11:45;;;;;;;25.27;13.38;;;;;;;;;;6225311;23;20051;-86
2021/01/10 10:14:15;;;;;;;39.83;14.23;;;;;;;;;;6226764;23;20057;-86
2021/01/10 10:16:44;;;;;;;21.65;12.23;;;;;;;;;;6223500;23;20028;-83
2021/01/10 10:19:10;;;;;;;25.27;12.38;;;;;;;;;;6222701;23;20024;-83
2021/01/10 10:21:47;;;;;;;25.13;11.60;;;;;;;;;;6224127;23;20024;-83
2021/01/10 10:24:17;;;;;;;24.92;11.65;;;;;;;;;;6225275;23;20051;-83
2021/01/10 10:26:43;;;;;;;22.10;10.57;;;;;;;;;;6224117;23;20067;-84
2021/01/10 10:29:09;;;;;;;21.10;11.05;;;;;;;;;;6223766;23;20070;-84
2021/01/10 10:31:35;;;;;;;20.98;10.85;;;;;;;;;;6224079;23;20078;-84
2021/01/10 10:34:02;;;;;;;25.92;11.20;;;;;;;;;;6222816;23;20102;-83
2021/01/10 10:36:28;;;;;;;24.60;11.55;;;;;;;;;;6222683;23;20024;-84
2021/01/10 10:38:57;;;;;;;23.40;11.32;;;;;;;;;;6250636;23;20071;-84
2021/01/10 10:41:23;;;;;;;22.45;11.52;;;;;;;;;;6222967;23;20171;-84
2021/01/10 10:43:50;;;;;;;22.67;11.95;;;;;;;;;;6249096;23;20028;-84
2021/01/10 10:46:16;;;;;;;23.58;11.32;;;;;;;;;;6223485;23;20039;-84
2021/01/10 10:48:44;;;;;;;17.80;10.02;;;;;;;;;;6224329;23;20028;-84
2021/01/10 10:51:10;;;;;;;22.17;10.90;;;;;;;;;;6249146;23;20446;-84
2021/01/10 10:53:39;;;;;;;23.73;11.02;;;;;;;;;;6248481;23;20044;-84
2021/01/10 10:56:09;;;;;;;16.45;10.07;;;;;;;;;;6262273;22;20064;-83
2021/01/10 10:58:37;;;;;;;16.58;9.80;;;;;;;;;;6267414;22;20012;-84
2021/01/10 11:01:06;;;;;;;21.85;10.20;;;;;;;;;;6260232;22;20038;-84
2021/01/10 11:03:33;;;;;;;19.23;10.43;;;;;;;;;;6222705;23;20034;-84
2021/01/10 11:05:59;;;;;;;19.83;9.85;;;;;;;;;;6222594;23;20055;-84
2021/01/10 11:08:27;;;;;;;16.80;9.75;;;;;;;;;;6230439;23;20110;-84
2021/01/10 11:10:53;;;;;;;21.92;9.52;;;;;;;;;;6262720;22;20016;-84
2021/01/10 11:13:20;;;;;;;17.75;9.38;;;;;;;;;;6225261;23;20366;-84
2021/01/10 11:15:46;;;;;;;16.00;8.65;;;;;;;;;;6225422;23;20226;-87
2021/01/10 11:18:13;;;;;;;18.02;9.98;;;;;;;;;;6225410;23;20050;-87
2021/01/10 11:20:39;;;;;;;19.98;10.38;;;;;;;;;;6251003;23;20016;-87
2021/01/10 11:23:05;;;;;;;23.58;9.60;;;;;;;;;;6222523;23;20262;-87
2021/01/10 11:25:32;;;;;;;21.33;9.85;;;;;;;;;;6252704;23;20094;-86
2021/01/10 11:27:59;;;;;;;20.75;10.00;;;;;;;;;;6250942;23;20028;-87
2021/01/10 11:30:25;;;;;;;18.60;10.00;;;;;;;;;;6224588;23;20055;-86
2021/01/10 11:32:56;;;;;;;25.20;11.20;;;;;;;;;;6251275;23;20034;-86
2021/01/10 11:35:22;;;;;;;23.25;10.55;;;;;;;;;;6229959;23;20052;-86
2021/01/10 11:37:49;;;;;;;20.10;10.60;;;;;;;;;;6233869;23;20078;-86
2021/01/10 11:40:15;;;;;;;21.95;10.77;;;;;;;;;;6233612;23;20016;-86
2021/01/10 11:42:47;;;;;;;25.02;11.85;;;;;;;;;;6229403;23;20032;-86
2021/01/10 11:45:14;;;;;;;21.60;10.07;;;;;;;;;;6253350;23;20086;-86
2021/01/10 11:47:40;;;;;;;23.42;11.52;;;;;;;;;;6252108;23;20060;-86
2021/01/10 11:50:07;;;;;;;28.33;11.95;;;;;;;;;;6227766;23;20024;-86
2021/01/10 11:52:33;;;;;;;27.42;11.52;;;;;;;;;;6253735;23;20024;-86
2021/01/10 11:54:59;;;;;;;29.10;11.93;;;;;;;;;;6233818;23;20031;-86
2021/01/10 11:57:25;;;;;;;25.73;11.43;;;;;;;;;;6263016;23;20071;-86
2021/01/10 11:59:57;;;;;;;28.10;12.20;;;;;;;;;;6268699;22;20016;-90
2021/01/10 12:02:24;;;;;;;23.27;11.73;;;;;;;;;;6268059;22;20012;-86
2021/01/10 12:04:51;;;;;;;24.75;12.73;;;;;;;;;;6268438;22;20200;-86
2021/01/10 12:07:18;;;;;;;24.40;12.00;;;;;;;;;;6242003;23;20012;-85
2021/01/10 12:09:45;;;;;;;34.58;12.55;;;;;;;;;;6238542;23;20032;-85
2021/01/10 12:12:11;;;;;;;29.15;13.18;;;;;;;;;;6259693;23;20056;-86
2021/01/10 12:14:37;;;;;;;27.92;11.93;;;;;;;;;;6229837;23;20058;-86
2021/01/10 12:17:07;;;;;;;26.75;11.63;;;;;;;;;;6253249;23;20105;-83
2021/01/10 12:19:35;;;;;;;24.15;11.95;;;;;;;;;;6252860;23;20062;-83
2021/01/10 12:22:01;;;;;;;25.55;11.40;;;;;;;;;;6226861;23;20111;-83
2021/01/10 12:24:28;;;;;;;23.83;11.30;;;;;;;;;;6227980;23;20080;-83
2021/01/10 12:26:56;;;;;;;22.77;10.88;;;;;;;;;;6225221;23;20031;-84
2021/01/10 12:29:22;;;;;;;19.98;10.50;;;;;;;;;;6224990;23;20034;-83
2021/01/10 12:31:49;;;;;;;25.58;11.00;;;;;;;;;;6224865;23;20035;-83
2021/01/10 12:34:15;;;;;;;24.17;11.43;;;;;;;;;;6250472;23;20038;-84
2021/01/10 12:36:41;;;;;;;23.98;10.38;;;;;;;;;;6252749;23;20386;-83
2021/01/10 12:39:08;;;;;;;23.30;9.77;;;;;;;;;;6250384;23;20028;-83
2021/01/10 12:41:34;;;;;;;18.98;8.95;;;;;;;;;;6250762;23;20039;-83
2021/01/10 12:44:00;;;;;;;18.88;9.02;;;;;;;;;;6226331;23;20285;-83
2021/01/10 12:46:45;;;;;;;16.88;9.02;;;;;;;;;;6256380;23;20039;-82
2021/01/10 12:49:14;;;;;;;20.90;9.27;;;;;;;;;;6266562;22;20016;-83
2021/01/10 12:51:41;;;;;;;18.15;8.32;;;;;;;;;;6241822;23;20098;-82
2021/01/10 12:54:07;;;;;;;13.63;7.85;;;;;;;;;;6241707;23;20058;-82
2021/01/10 12:56:34;;;;;;;13.30;6.80;;;;;;;;;;6268142;22;20024;-82
2021/01/10 12:59:01;;;;;;;17.85;6.88;;;;;;;;;;6265729;22;20059;-85
2021/01/10 13:01:28;;;;;;;19.45;7.65;;;;;;;;;;6231052;23;20024;-84
2021/01/10 13:03:55;;;;;;;13.02;6.88;;;;;;;;;;6254085;23;20032;-85
2021/01/10 13:06:25;;;;;;;12.73;6.80;;;;;;;;;;6228129;23;20123;-86
2021/01/10 13:08:51;;;;;;;19.38;6.63;;;;;;;;;;6255705;23;20039;-85
2021/01/10 13:11:21;;;;;;;12.27;6.53;;;;;;;;;;6255898;23;20024;-86
2021/01/10 13:13:56;;;;;;;15.43;7.00;;;;;;;;;;6229454;23;20016;-85
2021/01/10 13:16:27;;;;;;;17.58;7.32;;;;;;;;;;6228195;23;20140;-86
2021/01/10 13:18:53;;;;;;;15.68;6.45;;;;;;;;;;6226566;23;20405;-85
2021/01/10 13:21:20;;;;;;;12.05;5.82;;;;;;;;;;6227590;23;20291;-85
2021/01/10 13:23:47;;;;;;;16.75;5.95;;;;;;;;;;6226903;23;20401;-85
2021/01/10 13:26:14;;;;;;;10.98;5.38;;;;;;;;;;6230485;23;20048;-86
2021/01/10 13:28:40;;;;;;;9.07;5.05;;;;;;;;;;6250399;23;20016;-85
2021/01/10 13:31:07;;;;;;;10.52;5.50;;;;;;;;;;6250050;23;20381;-85
2021/01/10 13:33:33;;;;;;;15.55;4.72;;;;;;;;;;6252046;23;20024;-85
2021/01/10 13:35:59;;;;;;;10.70;4.50;;;;;;;;;;6226493;23;20218;-85
2021/01/10 13:38:26;;;;;;;8.73;4.18;;;;;;;;;;6225920;23;20086;-85
2021/01/10 13:40:53;;;;;;;8.75;3.88;;;;;;;;;;6226485;23;20024;-85
2021/01/10 13:43:23;;;;;;;15.55;4.78;;;;;;;;;;6253499;23;20056;-84
2021/01/10 13:45:50;;;;;;;11.90;5.00;;;;;;;;;;6253613;23;20062;-85
2021/01/10 13:48:16;;;;;;;9.63;3.88;;;;;;;;;;6225606;23;20023;-85
2021/01/10 13:50:46;;;;;;;8.43;4.13;;;;;;;;;;6251082;23;20067;-85
2021/01/10 13:53:13;;;;;;;8.05;3.92;;;;;;;;;;6249117;23;20067;-84
2021/01/10 13:55:39;;;;;;;8.38;4.28;;;;;;;;;;6223552;23;20024;-85
2021/01/10 13:58:21;;;;;;;9.68;4.70;;;;;;;;;;6249237;23;20095;-85
2021/01/10 14:00:51;;;;;;;13.32;4.57;;;;;;;;;;6249836;23;20024;-85
2021/01/10 14:03:18;;;;;;;9.93;4.10;;;;;;;;;;6197871;23;20035;-85
2021/01/10 14:05:44;;;;;;;13.95;4.40;;;;;;;;;;6223372;23;20016;-85
2021/01/10 14:08:12;;;;;;;7.88;4.28;;;;;;;;;;6249080;23;20024;-85
2021/01/10 14:10:39;;;;;;;12.10;3.80;;;;;;;;;;6248851;23;20083;-86
2021/01/10 14:13:14;;;;;;;9.57;3.80;;;;;;;;;;6249748;23;20406;-86
2021/01/10 14:15:42;;;;;;;13.20;4.95;;;;;;;;;;6223721;23;20082;-85
2021/01/10 14:18:12;;;;;;;6.57;3.88;;;;;;;;;;6251801;23;20087;-86
2021/01/10 14:20:41;;;;;;;6.60;3.90;;;;;;;;;;6225070;23;20040;-85
2021/01/10 14:23:19;;;;;;;14.43;4.38;;;;;;;;;;6224130;23;20034;-86
2021/01/10 14:25:46;;;;;;;11.73;3.78;;;;;;;;;;6262507;22;20020;-86
2021/01/10 14:28:12;;;;;;;6.93;3.67;;;;;;;;;;6267238;22;20054;-84
2021/01/10 14:30:40;;;;;;;9.23;3.60;;;;;;;;;;6261252;22;20465;-86
2021/01/10 14:33:10;;;;;;;9.98;3.97;;;;;;;;;;6224826;23;20232;-86
2021/01/10 14:35:36;;;;;;;10.43;3.90;;;;;;;;;;6251094;23;20024;-86